sensor_id;sensor_type;location;lat;lon;timestamp;P1;durP1;ratioP1;P2;durP2;ratioP2
17340;SDS011;8788;49.930;8.660;2023-04-02T00:08:27;2.42;;;0.80;;
17340;SDS011;8788;49.930;8.660;2023-04-02T00:11:03;2.15;;;1.30;;
17340;SDS011;8788;49.930;8.660;2023-04-02T00:13:32;1.05;;;0.95;;
17340;SDS011;8788;49.930;8.660;2023-04-02T00:16:02;1.40;;;1.20;;
17340;SDS011;8788;49.930;8.660;2023-04-02T00:18:32;1.75;;;1.20;;
17340;SDS011;8788;49.930;8.660;2023-04-02T00:21:08;1.52;;;1.38;;
17340;SDS011;8788;49.930;8.660;2023-04-02T00:23:39;3.00;;;1.48;;
17340;SDS011;8788;49.930;8.660;2023-04-02T00:26:19;2.72;;;1.63;;
17340;SDS011;8788;49.930;8.660;2023-04-02T00:28:48;2.15;;;1.95;;
17340;SDS011;8788;49.930;8.660;2023-04-02T00:31:16;2.78;;;2.00;;
17340;SDS011;8788;49.930;8.660;2023-04-02T00:33:46;4.43;;;2.58;;
17340;SDS011;8788;49.930;8.660;2023-04-02T00:36:14;5.68;;;3.10;;
17340;SDS011;8788;49.930;8.660;2023-04-02T00:38:44;8.52;;;3.65;;
17340;SDS011;8788;49.930;8.660;2023-04-02T00:41:13;8.90;;;3.55;;
17340;SDS011;8788;49.930;8.660;2023-04-02T00:43:44;10.43;;;3.80;;
17340;SDS011;8788;49.930;8.660;2023-04-02T00:46:15;10.27;;;3.90;;
17340;SDS011;8788;49.930;8.660;2023-04-02T00:48:51;10.25;;;3.50;;
17340;SDS011;8788;49.930;8.660;2023-04-02T00:51:21;5.97;;;3.53;;
17340;SDS011;8788;49.930;8.660;2023-04-02T00:53:51;9.63;;;2.90;;
17340;SDS011;8788;49.930;8.660;2023-04-02T00:56:23;5.43;;;2.63;;
17340;SDS011;8788;49.930;8.660;2023-04-02T00:58:53;4.82;;;3.13;;
17340;SDS011;8788;49.930;8.660;2023-04-02T01:01:23;7.47;;;2.33;;
17340;SDS011;8788;49.930;8.660;2023-04-02T01:03:55;4.00;;;2.50;;
17340;SDS011;8788;49.930;8.660;2023-04-02T01:06:27;3.55;;;2.42;;
17340;SDS011;8788;49.930;8.660;2023-04-02T01:11:54;4.53;;;2.28;;
17340;SDS011;8788;49.930;8.660;2023-04-02T01:14:36;3.05;;;2.60;;
17340;SDS011;8788;49.930;8.660;2023-04-02T01:17:12;3.47;;;2.80;;
17340;SDS011;8788;49.930;8.660;2023-04-02T01:19:59;2.72;;;2.17;;
17340;SDS011;8788;49.930;8.660;2023-04-02T01:22:58;3.83;;;2.03;;
17340;SDS011;8788;49.930;8.660;2023-04-02T01:25:33;5.53;;;2.78;;
17340;SDS011;8788;49.930;8.660;2023-04-02T01:28:08;3.55;;;2.60;;
17340;SDS011;8788;49.930;8.660;2023-04-02T01:30:41;5.35;;;3.10;;
17340;SDS011;8788;49.930;8.660;2023-04-02T01:33:11;4.70;;;2.75;;
17340;SDS011;8788;49.930;8.660;2023-04-02T01:35:38;3.20;;;2.13;;
17340;SDS011;8788;49.930;8.660;2023-04-02T01:38:13;4.03;;;2.45;;
17340;SDS011;8788;49.930;8.660;2023-04-02T01:40:46;2.55;;;2.10;;
17340;SDS011;8788;49.930;8.660;2023-04-02T01:43:19;4.53;;;2.22;;
17340;SDS011;8788;49.930;8.660;2023-04-02T01:45:57;5.05;;;2.17;;
17340;SDS011;8788;49.930;8.660;2023-04-02T01:48:27;2.58;;;2.22;;
17340;SDS011;8788;49.930;8.660;2023-04-02T01:50:56;4.30;;;2.67;;
17340;SDS011;8788;49.930;8.660;2023-04-02T01:53:28;5.15;;;2.67;;
17340;SDS011;8788;49.930;8.660;2023-04-02T01:55:57;3.60;;;2.60;;
17340;SDS011;8788;49.930;8.660;2023-04-02T01:58:26;2.10;;;1.90;;
17340;SDS011;8788;49.930;8.660;2023-04-02T02:00:58;3.38;;;2.58;;
17340;SDS011;8788;49.930;8.660;2023-04-02T02:03:29;3.22;;;2.80;;
17340;SDS011;8788;49.930;8.660;2023-04-02T02:05:57;2.95;;;2.42;;
17340;SDS011;8788;49.930;8.660;2023-04-02T02:08:28;2.25;;;2.13;;
17340;SDS011;8788;49.930;8.660;2023-04-02T02:10:58;3.05;;;2.30;;
17340;SDS011;8788;49.930;8.660;2023-04-02T02:13:27;3.38;;;2.38;;
17340;SDS011;8788;49.930;8.660;2023-04-02T02:15:58;3.45;;;2.42;;
17340;SDS011;8788;49.930;8.660;2023-04-02T02:18:26;3.15;;;2.70;;
17340;SDS011;8788;49.930;8.660;2023-04-02T02:20:55;4.70;;;2.50;;
17340;SDS011;8788;49.930;8.660;2023-04-02T02:23:38;6.53;;;2.65;;
17340;SDS011;8788;49.930;8.660;2023-04-02T02:26:13;2.55;;;2.20;;
17340;SDS011;8788;49.930;8.660;2023-04-02T02:28:41;2.42;;;2.17;;
17340;SDS011;8788;49.930;8.660;2023-04-02T02:31:14;2.45;;;2.20;;
17340;SDS011;8788;49.930;8.660;2023-04-02T02:33:46;3.03;;;2.08;;
17340;SDS011;8788;49.930;8.660;2023-04-02T02:36:20;3.13;;;2.10;;
17340;SDS011;8788;49.930;8.660;2023-04-02T02:38:52;3.58;;;2.10;;
17340;SDS011;8788;49.930;8.660;2023-04-02T02:41:43;2.60;;;1.92;;
17340;SDS011;8788;49.930;8.660;2023-04-02T02:44:13;3.22;;;2.15;;
17340;SDS011;8788;49.930;8.660;2023-04-02T02:46:46;3.05;;;2.13;;
17340;SDS011;8788;49.930;8.660;2023-04-02T02:49:18;4.00;;;2.13;;
17340;SDS011;8788;49.930;8.660;2023-04-02T02:51:52;2.20;;;2.00;;
17340;SDS011;8788;49.930;8.660;2023-04-02T02:54:30;2.70;;;2.50;;
17340;SDS011;8788;49.930;8.660;2023-04-02T02:57:01;4.15;;;2.30;;
17340;SDS011;8788;49.930;8.660;2023-04-02T02:59:31;8.10;;;2.65;;
17340;SDS011;8788;49.930;8.660;2023-04-02T03:02:01;7.00;;;3.33;;
17340;SDS011;8788;49.930;8.660;2023-04-02T03:04:31;4.70;;;2.58;;
17340;SDS011;8788;49.930;8.660;2023-04-02T03:07:02;11.20;;;3.63;;
17340;SDS011;8788;49.930;8.660;2023-04-02T03:09:33;9.02;;;3.70;;
17340;SDS011;8788;49.930;8.660;2023-04-02T03:12:06;7.18;;;3.22;;
17340;SDS011;8788;49.930;8.660;2023-04-02T03:14:51;5.65;;;2.90;;
17340;SDS011;8788;49.930;8.660;2023-04-02T03:17:26;3.38;;;2.55;;
17340;SDS011;8788;49.930;8.660;2023-04-02T03:20:00;4.55;;;2.70;;
17340;SDS011;8788;49.930;8.660;2023-04-02T03:22:33;3.85;;;2.30;;
17340;SDS011;8788;49.930;8.660;2023-04-02T03:25:04;3.95;;;2.22;;
17340;SDS011;8788;49.930;8.660;2023-04-02T03:27:42;2.45;;;2.20;;
17340;SDS011;8788;49.930;8.660;2023-04-02T03:30:19;4.57;;;2.05;;
17340;SDS011;8788;49.930;8.660;2023-04-02T03:32:56;2.95;;;2.00;;
17340;SDS011;8788;49.930;8.660;2023-04-02T03:35:27;2.88;;;2.33;;
17340;SDS011;8788;49.930;8.660;2023-04-02T03:38:02;3.17;;;2.53;;
17340;SDS011;8788;49.930;8.660;2023-04-02T03:40:33;7.20;;;3.25;;
17340;SDS011;8788;49.930;8.660;2023-04-02T03:43:11;6.60;;;2.95;;
17340;SDS011;8788;49.930;8.660;2023-04-02T03:45:43;4.53;;;2.72;;
17340;SDS011;8788;49.930;8.660;2023-04-02T03:48:17;5.88;;;2.60;;
17340;SDS011;8788;49.930;8.660;2023-04-02T03:50:51;9.60;;;2.45;;
17340;SDS011;8788;49.930;8.660;2023-04-02T03:53:24;3.13;;;2.33;;
17340;SDS011;8788;49.930;8.660;2023-04-02T03:55:54;4.05;;;2.08;;
17340;SDS011;8788;49.930;8.660;2023-04-02T03:58:23;5.80;;;2.40;;
17340;SDS011;8788;49.930;8.660;2023-04-02T04:00:58;3.70;;;2.13;;
17340;SDS011;8788;49.930;8.660;2023-04-02T04:03:35;4.65;;;1.98;;
17340;SDS011;8788;49.930;8.660;2023-04-02T04:06:08;3.60;;;1.98;;
17340;SDS011;8788;49.930;8.660;2023-04-02T04:08:40;4.15;;;1.90;;
17340;SDS011;8788;49.930;8.660;2023-04-02T04:11:13;2.33;;;1.67;;
17340;SDS011;8788;49.930;8.660;2023-04-02T04:13:43;4.97;;;2.00;;
17340;SDS011;8788;49.930;8.660;2023-04-02T04:16:15;2.35;;;2.03;;
17340;SDS011;8788;49.930;8.660;2023-04-02T04:18:50;2.78;;;2.15;;
17340;SDS011;8788;49.930;8.660;2023-04-02T04:21:28;5.25;;;2.05;;
17340;SDS011;8788;49.930;8.660;2023-04-02T04:24:15;3.95;;;2.25;;
17340;SDS011;8788;49.930;8.660;2023-04-02T04:26:50;2.67;;;2.10;;
17340;SDS011;8788;49.930;8.660;2023-04-02T04:29:26;2.75;;;2.03;;
17340;SDS011;8788;49.930;8.660;2023-04-02T04:32:11;3.30;;;2.17;;
17340;SDS011;8788;49.930;8.660;2023-04-02T04:34:48;2.83;;;2.22;;
17340;SDS011;8788;49.930;8.660;2023-04-02T04:37:27;3.95;;;1.95;;
17340;SDS011;8788;49.930;8.660;2023-04-02T04:40:03;2.60;;;2.30;;
17340;SDS011;8788;49.930;8.660;2023-04-02T04:42:37;3.28;;;2.30;;
17340;SDS011;8788;49.930;8.660;2023-04-02T04:45:10;3.33;;;2.63;;
17340;SDS011;8788;49.930;8.660;2023-04-02T04:47:50;4.80;;;2.58;;
17340;SDS011;8788;49.930;8.660;2023-04-02T04:50:24;2.47;;;2.28;;
17340;SDS011;8788;49.930;8.660;2023-04-02T04:53:03;3.30;;;2.88;;
17340;SDS011;8788;49.930;8.660;2023-04-02T04:55:34;6.63;;;3.00;;
17340;SDS011;8788;49.930;8.660;2023-04-02T04:58:07;4.40;;;3.25;;
17340;SDS011;8788;49.930;8.660;2023-04-02T05:00:41;4.97;;;3.45;;
17340;SDS011;8788;49.930;8.660;2023-04-02T05:03:16;6.07;;;3.40;;
17340;SDS011;8788;49.930;8.660;2023-04-02T05:05:51;3.53;;;2.97;;
17340;SDS011;8788;49.930;8.660;2023-04-02T05:08:19;4.43;;;3.88;;
17340;SDS011;8788;49.930;8.660;2023-04-02T05:10:53;4.28;;;3.17;;
17340;SDS011;8788;49.930;8.660;2023-04-02T05:13:27;4.85;;;3.88;;
17340;SDS011;8788;49.930;8.660;2023-04-02T05:16:01;4.18;;;3.80;;
17340;SDS011;8788;49.930;8.660;2023-04-02T05:18:36;6.00;;;4.15;;
17340;SDS011;8788;49.930;8.660;2023-04-02T05:21:12;3.92;;;3.63;;
17340;SDS011;8788;49.930;8.660;2023-04-02T05:23:47;4.10;;;3.70;;
17340;SDS011;8788;49.930;8.660;2023-04-02T05:26:20;5.30;;;4.10;;
17340;SDS011;8788;49.930;8.660;2023-04-02T05:28:51;6.13;;;3.67;;
17340;SDS011;8788;49.930;8.660;2023-04-02T05:31:23;3.83;;;3.40;;
17340;SDS011;8788;49.930;8.660;2023-04-02T05:33:54;4.50;;;3.45;;
17340;SDS011;8788;49.930;8.660;2023-04-02T05:36:23;5.60;;;3.63;;
17340;SDS011;8788;49.930;8.660;2023-04-02T05:38:56;4.28;;;3.88;;
17340;SDS011;8788;49.930;8.660;2023-04-02T05:41:40;5.55;;;4.05;;
17340;SDS011;8788;49.930;8.660;2023-04-02T05:44:15;5.97;;;4.00;;
17340;SDS011;8788;49.930;8.660;2023-04-02T05:46:50;5.10;;;3.72;;
17340;SDS011;8788;49.930;8.660;2023-04-02T05:49:24;4.95;;;3.90;;
17340;SDS011;8788;49.930;8.660;2023-04-02T05:51:59;4.32;;;3.92;;
17340;SDS011;8788;49.930;8.660;2023-04-02T05:54:30;4.60;;;4.20;;
17340;SDS011;8788;49.930;8.660;2023-04-02T05:57:01;4.47;;;3.85;;
17340;SDS011;8788;49.930;8.660;2023-04-02T05:59:36;4.32;;;3.92;;
17340;SDS011;8788;49.930;8.660;2023-04-02T06:02:09;3.90;;;3.42;;
17340;SDS011;8788;49.930;8.660;2023-04-02T06:04:47;5.40;;;4.07;;
17340;SDS011;8788;49.930;8.660;2023-04-02T06:07:22;5.28;;;3.63;;
17340;SDS011;8788;49.930;8.660;2023-04-02T06:09:56;4.18;;;3.78;;
17340;SDS011;8788;49.930;8.660;2023-04-02T06:12:34;3.70;;;3.40;;
17340;SDS011;8788;49.930;8.660;2023-04-02T06:15:10;4.35;;;3.95;;
17340;SDS011;8788;49.930;8.660;2023-04-02T06:17:42;4.00;;;3.67;;
17340;SDS011;8788;49.930;8.660;2023-04-02T06:20:12;4.22;;;3.53;;
17340;SDS011;8788;49.930;8.660;2023-04-02T06:22:45;3.55;;;3.25;;
17340;SDS011;8788;49.930;8.660;2023-04-02T06:25:16;4.43;;;3.40;;
17340;SDS011;8788;49.930;8.660;2023-04-02T06:27:48;4.05;;;3.65;;
17340;SDS011;8788;49.930;8.660;2023-04-02T06:30:19;3.70;;;3.30;;
17340;SDS011;8788;49.930;8.660;2023-04-02T06:32:51;3.58;;;3.28;;
17340;SDS011;8788;49.930;8.660;2023-04-02T06:35:19;4.57;;;3.30;;
17340;SDS011;8788;49.930;8.660;2023-04-02T06:37:56;3.60;;;3.28;;
17340;SDS011;8788;49.930;8.660;2023-04-02T06:40:35;3.85;;;3.38;;
17340;SDS011;8788;49.930;8.660;2023-04-02T06:43:23;4.80;;;3.67;;
17340;SDS011;8788;49.930;8.660;2023-04-02T06:46:21;2.92;;;2.63;;
17340;SDS011;8788;49.930;8.660;2023-04-02T06:48:58;3.63;;;3.33;;
17340;SDS011;8788;49.930;8.660;2023-04-02T06:51:30;4.05;;;3.38;;
17340;SDS011;8788;49.930;8.660;2023-04-02T06:54:04;4.60;;;3.33;;
17340;SDS011;8788;49.930;8.660;2023-04-02T06:56:37;5.43;;;3.60;;
17340;SDS011;8788;49.930;8.660;2023-04-02T06:59:08;4.18;;;3.22;;
17340;SDS011;8788;49.930;8.660;2023-04-02T07:01:38;4.15;;;3.40;;
17340;SDS011;8788;49.930;8.660;2023-04-02T07:04:08;3.38;;;2.97;;
17340;SDS011;8788;49.930;8.660;2023-04-02T07:06:39;3.35;;;3.10;;
17340;SDS011;8788;49.930;8.660;2023-04-02T07:09:09;3.50;;;3.13;;
17340;SDS011;8788;49.930;8.660;2023-04-02T07:11:39;4.68;;;3.75;;
17340;SDS011;8788;49.930;8.660;2023-04-02T07:14:09;3.33;;;2.92;;
17340;SDS011;8788;49.930;8.660;2023-04-02T07:16:37;4.30;;;3.28;;
17340;SDS011;8788;49.930;8.660;2023-04-02T07:19:06;4.57;;;3.53;;
17340;SDS011;8788;49.930;8.660;2023-04-02T07:21:41;5.53;;;4.47;;
17340;SDS011;8788;49.930;8.660;2023-04-02T07:24:10;4.82;;;4.07;;
17340;SDS011;8788;49.930;8.660;2023-04-02T07:26:37;4.93;;;4.15;;
17340;SDS011;8788;49.930;8.660;2023-04-02T07:29:05;6.97;;;4.57;;
17340;SDS011;8788;49.930;8.660;2023-04-02T07:31:32;4.60;;;3.63;;
17340;SDS011;8788;49.930;8.660;2023-04-02T07:33:59;4.35;;;3.60;;
17340;SDS011;8788;49.930;8.660;2023-04-02T07:36:27;4.07;;;3.67;;
17340;SDS011;8788;49.930;8.660;2023-04-02T07:38:55;3.83;;;2.17;;
17340;SDS011;8788;49.930;8.660;2023-04-02T07:41:24;1.00;;;0.90;;
17340;SDS011;8788;49.930;8.660;2023-04-02T07:43:51;0.50;;;0.50;;
17340;SDS011;8788;49.930;8.660;2023-04-02T07:46:18;0.60;;;0.60;;
17340;SDS011;8788;49.930;8.660;2023-04-02T07:48:45;0.80;;;0.80;;
17340;SDS011;8788;49.930;8.660;2023-04-02T07:51:14;0.50;;;0.50;;
17340;SDS011;8788;49.930;8.660;2023-04-02T07:53:43;0.38;;;0.38;;
17340;SDS011;8788;49.930;8.660;2023-04-02T07:56:14;0.68;;;0.40;;
17340;SDS011;8788;49.930;8.660;2023-04-02T07:58:45;1.30;;;0.30;;
17340;SDS011;8788;49.930;8.660;2023-04-02T08:01:16;0.20;;;0.20;;
17340;SDS011;8788;49.930;8.660;2023-04-02T08:03:45;0.20;;;0.20;;
17340;SDS011;8788;49.930;8.660;2023-04-02T08:06:12;0.20;;;0.20;;
17340;SDS011;8788;49.930;8.660;2023-04-02T08:08:40;1.13;;;0.30;;
17340;SDS011;8788;49.930;8.660;2023-04-02T08:11:07;0.45;;;0.45;;
17340;SDS011;8788;49.930;8.660;2023-04-02T08:13:35;0.10;;;0.10;;
17340;SDS011;8788;49.930;8.660;2023-04-02T08:16:05;2.30;;;0.50;;
17340;SDS011;8788;49.930;8.660;2023-04-02T08:18:33;0.30;;;0.30;;
17340;SDS011;8788;49.930;8.660;2023-04-02T08:21:00;0.43;;;0.43;;
17340;SDS011;8788;49.930;8.660;2023-04-02T08:23:28;1.23;;;0.43;;
17340;SDS011;8788;49.930;8.660;2023-04-02T08:25:55;0.20;;;0.20;;
17340;SDS011;8788;49.930;8.660;2023-04-02T08:28:22;0.20;;;0.20;;
17340;SDS011;8788;49.930;8.660;2023-04-02T08:30:49;0.47;;;0.47;;
17340;SDS011;8788;49.930;8.660;2023-04-02T08:33:18;1.27;;;0.40;;
17340;SDS011;8788;49.930;8.660;2023-04-02T08:35:45;0.20;;;0.20;;
17340;SDS011;8788;49.930;8.660;2023-04-02T08:38:13;0.50;;;0.50;;
17340;SDS011;8788;49.930;8.660;2023-04-02T08:40:42;0.30;;;0.20;;
17340;SDS011;8788;49.930;8.660;2023-04-02T08:43:22;1.27;;;0.98;;
17340;SDS011;8788;49.930;8.660;2023-04-02T08:46:13;3.40;;;3.10;;
17340;SDS011;8788;49.930;8.660;2023-04-02T08:48:48;0.50;;;0.50;;
17340;SDS011;8788;49.930;8.660;2023-04-02T08:51:22;1.30;;;1.20;;
17340;SDS011;8788;49.930;8.660;2023-04-02T08:53:51;0.47;;;0.47;;
17340;SDS011;8788;49.930;8.660;2023-04-02T08:56:24;0.63;;;0.40;;
17340;SDS011;8788;49.930;8.660;2023-04-02T08:58:56;0.50;;;0.50;;
17340;SDS011;8788;49.930;8.660;2023-04-02T09:01:29;0.52;;;0.30;;
17340;SDS011;8788;49.930;8.660;2023-04-02T09:04:06;0.30;;;0.30;;
17340;SDS011;8788;49.930;8.660;2023-04-02T09:06:40;0.43;;;0.43;;
17340;SDS011;8788;49.930;8.660;2023-04-02T09:09:08;0.30;;;0.30;;
17340;SDS011;8788;49.930;8.660;2023-04-02T09:11:38;0.43;;;0.43;;
17340;SDS011;8788;49.930;8.660;2023-04-02T09:14:12;0.22;;;0.22;;
17340;SDS011;8788;49.930;8.660;2023-04-02T09:16:44;0.40;;;0.40;;
17340;SDS011;8788;49.930;8.660;2023-04-02T09:19:20;0.30;;;0.30;;
17340;SDS011;8788;49.930;8.660;2023-04-02T09:21:54;0.20;;;0.20;;
17340;SDS011;8788;49.930;8.660;2023-04-02T09:24:28;0.65;;;0.65;;
17340;SDS011;8788;49.930;8.660;2023-04-02T09:26:55;0.50;;;0.50;;
17340;SDS011;8788;49.930;8.660;2023-04-02T09:32:14;0.30;;;0.30;;
17340;SDS011;8788;49.930;8.660;2023-04-02T09:34:51;0.50;;;0.30;;
17340;SDS011;8788;49.930;8.660;2023-04-02T09:37:32;4.07;;;2.05;;
17340;SDS011;8788;49.930;8.660;2023-04-02T09:43:05;0.50;;;0.50;;
17340;SDS011;8788;49.930;8.660;2023-04-02T09:45:37;0.82;;;0.60;;
17340;SDS011;8788;49.930;8.660;2023-04-02T09:48:14;0.70;;;0.70;;
17340;SDS011;8788;49.930;8.660;2023-04-02T09:50:50;8.27;;;4.65;;
17340;SDS011;8788;49.930;8.660;2023-04-02T09:53:39;1.45;;;1.13;;
17340;SDS011;8788;49.930;8.660;2023-04-02T09:56:10;0.75;;;0.60;;
17340;SDS011;8788;49.930;8.660;2023-04-02T09:58:39;5.70;;;3.17;;
17340;SDS011;8788;49.930;8.660;2023-04-02T10:01:16;3.15;;;1.80;;
17340;SDS011;8788;49.930;8.660;2023-04-02T10:03:53;0.95;;;0.60;;
17340;SDS011;8788;49.930;8.660;2023-04-02T10:06:22;0.90;;;0.85;;
17340;SDS011;8788;49.930;8.660;2023-04-02T10:08:49;1.52;;;0.88;;
17340;SDS011;8788;49.930;8.660;2023-04-02T10:11:17;0.50;;;0.50;;
17340;SDS011;8788;49.930;8.660;2023-04-02T10:13:50;1.67;;;0.55;;
17340;SDS011;8788;49.930;8.660;2023-04-02T10:16:21;0.85;;;0.85;;
17340;SDS011;8788;49.930;8.660;2023-04-02T10:18:52;0.93;;;0.90;;
17340;SDS011;8788;49.930;8.660;2023-04-02T10:21:25;0.45;;;0.45;;
17340;SDS011;8788;49.930;8.660;2023-04-02T10:23:54;0.50;;;0.50;;
17340;SDS011;8788;49.930;8.660;2023-04-02T10:26:35;2.15;;;1.13;;
17340;SDS011;8788;49.930;8.660;2023-04-02T10:29:11;0.85;;;0.70;;
17340;SDS011;8788;49.930;8.660;2023-04-02T10:31:49;0.40;;;0.40;;
17340;SDS011;8788;49.930;8.660;2023-04-02T10:34:27;0.30;;;0.30;;
17340;SDS011;8788;49.930;8.660;2023-04-02T10:37:08;0.60;;;0.60;;
17340;SDS011;8788;49.930;8.660;2023-04-02T10:39:52;0.50;;;0.50;;
17340;SDS011;8788;49.930;8.660;2023-04-02T10:42:24;0.50;;;0.50;;
17340;SDS011;8788;49.930;8.660;2023-04-02T10:44:53;1.67;;;0.43;;
17340;SDS011;8788;49.930;8.660;2023-04-02T10:47:27;0.50;;;0.50;;
17340;SDS011;8788;49.930;8.660;2023-04-02T10:50:06;0.70;;;0.70;;
17340;SDS011;8788;49.930;8.660;2023-04-02T10:52:52;0.50;;;0.50;;
17340;SDS011;8788;49.930;8.660;2023-04-02T10:55:26;0.65;;;0.50;;
17340;SDS011;8788;49.930;8.660;2023-04-02T10:57:56;0.60;;;0.60;;
17340;SDS011;8788;49.930;8.660;2023-04-02T11:00:30;0.93;;;0.60;;
17340;SDS011;8788;49.930;8.660;2023-04-02T11:03:01;0.70;;;0.70;;
17340;SDS011;8788;49.930;8.660;2023-04-02T11:05:34;0.60;;;0.50;;
17340;SDS011;8788;49.930;8.660;2023-04-02T11:08:13;0.60;;;0.60;;
17340;SDS011;8788;49.930;8.660;2023-04-02T11:10:45;0.50;;;0.50;;
17340;SDS011;8788;49.930;8.660;2023-04-02T11:13:17;0.60;;;0.60;;
17340;SDS011;8788;49.930;8.660;2023-04-02T11:15:49;0.50;;;0.50;;
17340;SDS011;8788;49.930;8.660;2023-04-02T11:18:21;0.65;;;0.65;;
17340;SDS011;8788;49.930;8.660;2023-04-02T11:20:56;0.40;;;0.40;;
17340;SDS011;8788;49.930;8.660;2023-04-02T11:23:27;0.70;;;0.68;;
17340;SDS011;8788;49.930;8.660;2023-04-02T11:29:07;0.40;;;0.40;;
17340;SDS011;8788;49.930;8.660;2023-04-02T11:31:40;0.60;;;0.60;;
17340;SDS011;8788;49.930;8.660;2023-04-02T11:34:12;0.85;;;0.70;;
17340;SDS011;8788;49.930;8.660;2023-04-02T11:37:00;0.90;;;0.47;;
17340;SDS011;8788;49.930;8.660;2023-04-02T11:39:45;0.50;;;0.50;;
17340;SDS011;8788;49.930;8.660;2023-04-02T11:42:28;0.60;;;0.60;;
17340;SDS011;8788;49.930;8.660;2023-04-02T11:45:00;0.60;;;0.60;;
17340;SDS011;8788;49.930;8.660;2023-04-02T11:48:26;0.65;;;0.52;;
17340;SDS011;8788;49.930;8.660;2023-04-02T11:50:54;1.02;;;0.60;;
17340;SDS011;8788;49.930;8.660;2023-04-02T11:53:25;0.80;;;0.73;;
17340;SDS011;8788;49.930;8.660;2023-04-02T11:56:08;0.68;;;0.63;;
17340;SDS011;8788;49.930;8.660;2023-04-02T11:58:46;0.50;;;0.50;;
17340;SDS011;8788;49.930;8.660;2023-04-02T12:01:28;0.60;;;0.60;;
17340;SDS011;8788;49.930;8.660;2023-04-02T12:07:32;0.95;;;0.50;;
17340;SDS011;8788;49.930;8.660;2023-04-02T12:10:23;0.45;;;0.45;;
17340;SDS011;8788;49.930;8.660;2023-04-02T12:12:58;0.75;;;0.70;;
17340;SDS011;8788;49.930;8.660;2023-04-02T12:15:33;0.60;;;0.60;;
17340;SDS011;8788;49.930;8.660;2023-04-02T12:18:11;0.52;;;0.52;;
17340;SDS011;8788;49.930;8.660;2023-04-02T12:20:44;0.60;;;0.60;;
17340;SDS011;8788;49.930;8.660;2023-04-02T12:23:21;0.70;;;0.70;;
17340;SDS011;8788;49.930;8.660;2023-04-02T12:25:57;1.35;;;1.25;;
17340;SDS011;8788;49.930;8.660;2023-04-02T12:28:25;0.68;;;0.68;;
17340;SDS011;8788;49.930;8.660;2023-04-02T12:31:01;1.55;;;1.10;;
17340;SDS011;8788;49.930;8.660;2023-04-02T12:33:31;3.10;;;2.30;;
17340;SDS011;8788;49.930;8.660;2023-04-02T12:36:02;6.13;;;3.80;;
17340;SDS011;8788;49.930;8.660;2023-04-02T12:38:41;2.92;;;2.17;;
17340;SDS011;8788;49.930;8.660;2023-04-02T12:41:18;1.33;;;1.23;;
17340;SDS011;8788;49.930;8.660;2023-04-02T12:43:55;0.77;;;0.77;;
17340;SDS011;8788;49.930;8.660;2023-04-02T12:46:23;1.00;;;0.50;;
17340;SDS011;8788;49.930;8.660;2023-04-02T12:48:51;1.42;;;0.85;;
17340;SDS011;8788;49.930;8.660;2023-04-02T12:51:19;1.27;;;0.82;;
17340;SDS011;8788;49.930;8.660;2023-04-02T12:53:49;1.23;;;1.02;;
17340;SDS011;8788;49.930;8.660;2023-04-02T12:56:18;0.73;;;0.65;;
17340;SDS011;8788;49.930;8.660;2023-04-02T12:58:50;1.25;;;0.88;;
17340;SDS011;8788;49.930;8.660;2023-04-02T13:01:19;3.65;;;1.20;;
17340;SDS011;8788;49.930;8.660;2023-04-02T13:04:03;1.20;;;1.10;;
17340;SDS011;8788;49.930;8.660;2023-04-02T13:06:32;1.30;;;1.20;;
17340;SDS011;8788;49.930;8.660;2023-04-02T13:09:02;0.80;;;0.80;;
17340;SDS011;8788;49.930;8.660;2023-04-02T13:11:35;1.00;;;1.00;;
17340;SDS011;8788;49.930;8.660;2023-04-02T13:14:06;1.58;;;1.15;;
17340;SDS011;8788;49.930;8.660;2023-04-02T13:16:42;1.08;;;1.05;;
17340;SDS011;8788;49.930;8.660;2023-04-02T13:19:10;1.42;;;0.93;;
17340;SDS011;8788;49.930;8.660;2023-04-02T13:21:47;1.23;;;1.13;;
17340;SDS011;8788;49.930;8.660;2023-04-02T13:24:16;1.48;;;1.38;;
17340;SDS011;8788;49.930;8.660;2023-04-02T13:26:44;2.47;;;1.40;;
17340;SDS011;8788;49.930;8.660;2023-04-02T13:29:24;1.65;;;1.33;;
17340;SDS011;8788;49.930;8.660;2023-04-02T13:31:53;1.25;;;1.15;;
17340;SDS011;8788;49.930;8.660;2023-04-02T13:34:22;1.40;;;1.30;;
17340;SDS011;8788;49.930;8.660;2023-04-02T13:36:50;2.22;;;1.40;;
17340;SDS011;8788;49.930;8.660;2023-04-02T13:39:18;1.40;;;1.10;;
17340;SDS011;8788;49.930;8.660;2023-04-02T13:41:46;2.00;;;1.67;;
17340;SDS011;8788;49.930;8.660;2023-04-02T13:44:17;1.55;;;1.40;;
17340;SDS011;8788;49.930;8.660;2023-04-02T13:46:49;1.45;;;1.35;;
17340;SDS011;8788;49.930;8.660;2023-04-02T13:49:17;1.88;;;1.60;;
17340;SDS011;8788;49.930;8.660;2023-04-02T13:51:44;1.38;;;1.27;;
17340;SDS011;8788;49.930;8.660;2023-04-02T13:54:14;1.40;;;1.30;;
17340;SDS011;8788;49.930;8.660;2023-04-02T13:56:47;2.13;;;1.52;;
17340;SDS011;8788;49.930;8.660;2023-04-02T13:59:14;1.33;;;1.20;;
17340;SDS011;8788;49.930;8.660;2023-04-02T14:01:42;2.25;;;1.45;;
17340;SDS011;8788;49.930;8.660;2023-04-02T14:04:12;1.48;;;1.38;;
17340;SDS011;8788;49.930;8.660;2023-04-02T14:10:00;5.28;;;2.80;;
17340;SDS011;8788;49.930;8.660;2023-04-02T14:12:39;4.38;;;2.33;;
17340;SDS011;8788;49.930;8.660;2023-04-02T14:15:34;6.10;;;2.97;;
17340;SDS011;8788;49.930;8.660;2023-04-02T14:18:20;7.32;;;3.97;;
17340;SDS011;8788;49.930;8.660;2023-04-02T14:21:03;9.88;;;4.72;;
17340;SDS011;8788;49.930;8.660;2023-04-02T14:23:51;3.95;;;2.70;;
17340;SDS011;8788;49.930;8.660;2023-04-02T14:26:30;2.72;;;2.00;;
17340;SDS011;8788;49.930;8.660;2023-04-02T14:29:04;3.17;;;2.47;;
17340;SDS011;8788;49.930;8.660;2023-04-02T14:31:36;4.43;;;2.47;;
17340;SDS011;8788;49.930;8.660;2023-04-02T14:34:12;3.63;;;2.03;;
17340;SDS011;8788;49.930;8.660;2023-04-02T14:36:47;3.42;;;2.20;;
17340;SDS011;8788;49.930;8.660;2023-04-02T14:39:23;2.25;;;2.10;;
17340;SDS011;8788;49.930;8.660;2023-04-02T14:42:04;2.50;;;2.30;;
17340;SDS011;8788;49.930;8.660;2023-04-02T14:44:38;2.15;;;1.95;;
17340;SDS011;8788;49.930;8.660;2023-04-02T14:47:12;3.75;;;2.67;;
17340;SDS011;8788;49.930;8.660;2023-04-02T14:49:43;2.40;;;2.20;;
17340;SDS011;8788;49.930;8.660;2023-04-02T14:52:15;4.50;;;3.40;;
17340;SDS011;8788;49.930;8.660;2023-04-02T14:54:45;2.95;;;2.30;;
17340;SDS011;8788;49.930;8.660;2023-04-02T14:57:18;2.88;;;2.58;;
17340;SDS011;8788;49.930;8.660;2023-04-02T14:59:50;3.10;;;2.70;;
17340;SDS011;8788;49.930;8.660;2023-04-02T15:02:23;3.22;;;2.92;;
17340;SDS011;8788;49.930;8.660;2023-04-02T15:04:58;3.25;;;2.72;;
17340;SDS011;8788;49.930;8.660;2023-04-02T15:07:31;2.40;;;2.25;;
17340;SDS011;8788;49.930;8.660;2023-04-02T15:10:05;2.70;;;2.40;;
17340;SDS011;8788;49.930;8.660;2023-04-02T15:12:38;3.35;;;2.97;;
17340;SDS011;8788;49.930;8.660;2023-04-02T15:15:12;3.45;;;2.35;;
17340;SDS011;8788;49.930;8.660;2023-04-02T15:17:44;2.78;;;2.55;;
17340;SDS011;8788;49.930;8.660;2023-04-02T15:20:13;3.90;;;2.95;;
17340;SDS011;8788;49.930;8.660;2023-04-02T15:22:42;3.15;;;2.42;;
17340;SDS011;8788;49.930;8.660;2023-04-02T15:25:23;3.15;;;2.85;;
17340;SDS011;8788;49.930;8.660;2023-04-02T15:28:00;2.58;;;2.38;;
17340;SDS011;8788;49.930;8.660;2023-04-02T15:30:42;2.70;;;2.50;;
17340;SDS011;8788;49.930;8.660;2023-04-02T15:33:30;2.75;;;2.47;;
17340;SDS011;8788;49.930;8.660;2023-04-02T15:39:19;2.45;;;2.15;;
17340;SDS011;8788;49.930;8.660;2023-04-02T15:42:09;3.92;;;2.30;;
17340;SDS011;8788;49.930;8.660;2023-04-02T15:44:45;2.65;;;2.45;;
17340;SDS011;8788;49.930;8.660;2023-04-02T15:47:26;2.25;;;2.05;;
17340;SDS011;8788;49.930;8.660;2023-04-02T15:50:05;3.67;;;2.65;;
17340;SDS011;8788;49.930;8.660;2023-04-02T15:52:47;3.40;;;2.72;;
17340;SDS011;8788;49.930;8.660;2023-04-02T15:55:21;3.05;;;2.85;;
17340;SDS011;8788;49.930;8.660;2023-04-02T15:58:03;3.42;;;2.60;;
17340;SDS011;8788;49.930;8.660;2023-04-02T16:00:44;3.72;;;2.97;;
17340;SDS011;8788;49.930;8.660;2023-04-02T16:03:26;3.75;;;2.42;;
17340;SDS011;8788;49.930;8.660;2023-04-02T16:11:42;5.30;;;2.50;;
17340;SDS011;8788;49.930;8.660;2023-04-02T16:14:14;2.72;;;2.42;;